sensor_id;sensor_type;location;lat;lon;timestamp;P1;durP1;ratioP1;P2;durP2;ratioP2
52816;SDS011;38687;43.330;21.924;2023-02-28T00:00:08;60.45;;;31.60;;
52816;SDS011;38687;43.330;21.924;2023-02-28T00:02:37;84.15;;;37.33;;
52816;SDS011;38687;43.330;21.924;2023-02-28T00:05:09;91.03;;;43.38;;
52816;SDS011;38687;43.330;21.924;2023-02-28T00:07:34;65.43;;;32.03;;
52816;SDS011;38687;43.330;21.924;2023-02-28T00:10:00;68.75;;;32.40;;
52816;SDS011;38687;43.330;21.924;2023-02-28T00:12:25;64.15;;;31.65;;
52816;SDS011;38687;43.330;21.924;2023-02-28T00:14:50;72.80;;;33.33;;
52816;SDS011;38687;43.330;21.924;2023-02-28T00:17:16;65.53;;;30.17;;
52816;SDS011;38687;43.330;21.924;2023-02-28T00:19:45;57.50;;;28.50;;
52816;SDS011;38687;43.330;21.924;2023-02-28T00:22:11;58.20;;;29.45;;
52816;SDS011;38687;43.330;21.924;2023-02-28T00:24:36;48.22;;;25.25;;
52816;SDS011;38687;43.330;21.924;2023-02-28T00:27:01;44.80;;;21.70;;
52816;SDS011;38687;43.330;21.924;2023-02-28T00:29:27;48.95;;;23.30;;
52816;SDS011;38687;43.330;21.924;2023-02-28T00:31:58;50.30;;;24.77;;
52816;SDS011;38687;43.330;21.924;2023-02-28T00:34:23;45.13;;;23.20;;
52816;SDS011;38687;43.330;21.924;2023-02-28T00:36:48;47.70;;;23.15;;
52816;SDS011;38687;43.330;21.924;2023-02-28T00:39:14;48.65;;;21.27;;
52816;SDS011;38687;43.330;21.924;2023-02-28T00:41:39;45.28;;;21.13;;
52816;SDS011;38687;43.330;21.924;2023-02-28T00:44:04;49.88;;;22.40;;
52816;SDS011;38687;43.330;21.924;2023-02-28T00:46:29;47.00;;;24.08;;
52816;SDS011;38687;43.330;21.924;2023-02-28T00:48:55;49.08;;;22.13;;
52816;SDS011;38687;43.330;21.924;2023-02-28T00:51:20;53.00;;;21.55;;
52816;SDS011;38687;43.330;21.924;2023-02-28T00:53:45;40.13;;;19.75;;
52816;SDS011;38687;43.330;21.924;2023-02-28T00:56:10;43.60;;;18.97;;
52816;SDS011;38687;43.330;21.924;2023-02-28T00:58:36;43.70;;;21.48;;
52816;SDS011;38687;43.330;21.924;2023-02-28T01:01:04;47.72;;;21.30;;
52816;SDS011;38687;43.330;21.924;2023-02-28T01:03:32;46.25;;;21.25;;
52816;SDS011;38687;43.330;21.924;2023-02-28T01:06:00;39.85;;;18.92;;
52816;SDS011;38687;43.330;21.924;2023-02-28T01:08:28;45.28;;;19.92;;
52816;SDS011;38687;43.330;21.924;2023-02-28T01:10:53;47.15;;;20.95;;
52816;SDS011;38687;43.330;21.924;2023-02-28T01:13:19;43.43;;;20.37;;
52816;SDS011;38687;43.330;21.924;2023-02-28T01:15:52;42.10;;;19.38;;
52816;SDS011;38687;43.330;21.924;2023-02-28T01:18:19;46.55;;;22.58;;
52816;SDS011;38687;43.330;21.924;2023-02-28T01:20:44;42.80;;;21.40;;
52816;SDS011;38687;43.330;21.924;2023-02-28T01:23:11;43.80;;;20.42;;
52816;SDS011;38687;43.330;21.924;2023-02-28T01:25:36;77.90;;;38.00;;
52816;SDS011;38687;43.330;21.924;2023-02-28T01:28:07;45.97;;;22.42;;
52816;SDS011;38687;43.330;21.924;2023-02-28T01:30:33;49.80;;;23.40;;
52816;SDS011;38687;43.330;21.924;2023-02-28T01:32:58;54.55;;;27.88;;
52816;SDS011;38687;43.330;21.924;2023-02-28T01:35:23;49.13;;;24.38;;
52816;SDS011;38687;43.330;21.924;2023-02-28T01:37:48;51.15;;;24.98;;
52816;SDS011;38687;43.330;21.924;2023-02-28T01:40:20;64.38;;;31.10;;
52816;SDS011;38687;43.330;21.924;2023-02-28T01:42:45;49.38;;;25.17;;
52816;SDS011;38687;43.330;21.924;2023-02-28T01:47:36;59.30;;;25.93;;
52816;SDS011;38687;43.330;21.924;2023-02-28T01:50:04;68.95;;;31.38;;
52816;SDS011;38687;43.330;21.924;2023-02-28T01:52:30;84.28;;;37.47;;
52816;SDS011;38687;43.330;21.924;2023-02-28T01:54:58;65.25;;;30.92;;
52816;SDS011;38687;43.330;21.924;2023-02-28T01:57:25;42.53;;;20.13;;
52816;SDS011;38687;43.330;21.924;2023-02-28T01:59:57;37.58;;;19.50;;
52816;SDS011;38687;43.330;21.924;2023-02-28T02:02:24;82.65;;;37.22;;
52816;SDS011;38687;43.330;21.924;2023-02-28T02:07:45;69.88;;;33.88;;
52816;SDS011;38687;43.330;21.924;2023-02-28T02:15:22;88.60;;;43.17;;
52816;SDS011;38687;43.330;21.924;2023-02-28T02:17:50;54.22;;;27.42;;
52816;SDS011;38687;43.330;21.924;2023-02-28T02:20:21;61.88;;;35.80;;
52816;SDS011;38687;43.330;21.924;2023-02-28T02:23:03;61.10;;;26.50;;
52816;SDS011;38687;43.330;21.924;2023-02-28T02:26:06;45.50;;;19.65;;
52816;SDS011;38687;43.330;21.924;2023-02-28T02:33:26;74.80;;;34.97;;
52816;SDS011;38687;43.330;21.924;2023-02-28T02:46:26;46.47;;;21.48;;
52816;SDS011;38687;43.330;21.924;2023-02-28T02:48:54;46.63;;;20.42;;
52816;SDS011;38687;43.330;21.924;2023-02-28T02:51:20;41.67;;;18.80;;
52816;SDS011;38687;43.330;21.924;2023-02-28T02:53:48;45.40;;;19.42;;
52816;SDS011;38687;43.330;21.924;2023-02-28T02:56:21;43.10;;;19.73;;
52816;SDS011;38687;43.330;21.924;2023-02-28T02:58:51;52.28;;;23.30;;
52816;SDS011;38687;43.330;21.924;2023-02-28T03:01:22;45.70;;;19.90;;
52816;SDS011;38687;43.330;21.924;2023-02-28T03:04:19;48.28;;;20.70;;
52816;SDS011;38687;43.330;21.924;2023-02-28T03:09:12;46.15;;;20.58;;
52816;SDS011;38687;43.330;21.924;2023-02-28T03:11:38;46.75;;;19.90;;
52816;SDS011;38687;43.330;21.924;2023-02-28T03:14:08;50.78;;;23.02;;
52816;SDS011;38687;43.330;21.924;2023-02-28T03:19:11;43.70;;;20.98;;
52816;SDS011;38687;43.330;21.924;2023-02-28T03:24:21;44.30;;;21.48;;
52816;SDS011;38687;43.330;21.924;2023-02-28T03:26:58;44.90;;;21.80;;
52816;SDS011;38687;43.330;21.924;2023-02-28T03:34:29;37.10;;;18.92;;
52816;SDS011;38687;43.330;21.924;2023-02-28T03:37:12;38.90;;;18.77;;
52816;SDS011;38687;43.330;21.924;2023-02-28T03:39:40;39.25;;;19.88;;
52816;SDS011;38687;43.330;21.924;2023-02-28T03:42:18;41.33;;;19.40;;
52816;SDS011;38687;43.330;21.924;2023-02-28T03:44:45;43.90;;;19.65;;
52816;SDS011;38687;43.330;21.924;2023-02-28T03:47:14;46.13;;;21.52;;
52816;SDS011;38687;43.330;21.924;2023-02-28T03:49:49;45.28;;;20.05;;
52816;SDS011;38687;43.330;21.924;2023-02-28T03:52:17;44.33;;;19.83;;
52816;SDS011;38687;43.330;21.924;2023-02-28T03:54:45;44.28;;;21.00;;
52816;SDS011;38687;43.330;21.924;2023-02-28T03:57:15;47.83;;;22.83;;
52816;SDS011;38687;43.330;21.924;2023-02-28T03:59:47;45.95;;;20.48;;
52816;SDS011;38687;43.330;21.924;2023-02-28T04:02:12;44.03;;;20.35;;
52816;SDS011;38687;43.330;21.924;2023-02-28T04:04:38;39.63;;;17.83;;
52816;SDS011;38687;43.330;21.924;2023-02-28T04:07:07;42.80;;;20.40;;
52816;SDS011;38687;43.330;21.924;2023-02-28T04:09:32;38.72;;;20.05;;
52816;SDS011;38687;43.330;21.924;2023-02-28T04:12:01;43.20;;;19.55;;
52816;SDS011;38687;43.330;21.924;2023-02-28T04:14:26;34.78;;;18.52;;
52816;SDS011;38687;43.330;21.924;2023-02-28T04:16:51;35.47;;;18.73;;
52816;SDS011;38687;43.330;21.924;2023-02-28T04:19:20;46.75;;;18.27;;
52816;SDS011;38687;43.330;21.924;2023-02-28T04:21:49;42.90;;;19.35;;
52816;SDS011;38687;43.330;21.924;2023-02-28T04:24:22;36.42;;;19.58;;
52816;SDS011;38687;43.330;21.924;2023-02-28T04:26:48;43.75;;;19.63;;
52816;SDS011;38687;43.330;21.924;2023-02-28T04:29:18;42.53;;;19.75;;
52816;SDS011;38687;43.330;21.924;2023-02-28T04:31:44;46.38;;;20.52;;
52816;SDS011;38687;43.330;21.924;2023-02-28T04:34:09;42.03;;;19.73;;
52816;SDS011;38687;43.330;21.924;2023-02-28T04:36:37;38.77;;;18.80;;
52816;SDS011;38687;43.330;21.924;2023-02-28T04:39:06;41.85;;;18.50;;
52816;SDS011;38687;43.330;21.924;2023-02-28T04:41:31;41.75;;;19.00;;
52816;SDS011;38687;43.330;21.924;2023-02-28T04:43:56;41.30;;;19.27;;
52816;SDS011;38687;43.330;21.924;2023-02-28T04:46:21;38.15;;;17.58;;
52816;SDS011;38687;43.330;21.924;2023-02-28T04:48:47;39.28;;;18.60;;
52816;SDS011;38687;43.330;21.924;2023-02-28T04:51:13;45.45;;;20.25;;
52816;SDS011;38687;43.330;21.924;2023-02-28T04:53:39;34.72;;;17.92;;
52816;SDS011;38687;43.330;21.924;2023-02-28T04:56:05;41.03;;;19.75;;
52816;SDS011;38687;43.330;21.924;2023-02-28T04:58:31;42.75;;;19.77;;
52816;SDS011;38687;43.330;21.924;2023-02-28T05:01:04;43.78;;;21.08;;
52816;SDS011;38687;43.330;21.924;2023-02-28T05:03:29;42.50;;;20.35;;
52816;SDS011;38687;43.330;21.924;2023-02-28T05:05:55;42.42;;;19.30;;
52816;SDS011;38687;43.330;21.924;2023-02-28T05:08:20;40.83;;;19.48;;
52816;SDS011;38687;43.330;21.924;2023-02-28T05:10:45;39.47;;;18.60;;
52816;SDS011;38687;43.330;21.924;2023-02-28T05:13:11;47.65;;;21.05;;
52816;SDS011;38687;43.330;21.924;2023-02-28T05:15:39;47.20;;;21.40;;
52816;SDS011;38687;43.330;21.924;2023-02-28T05:18:05;48.25;;;23.42;;
52816;SDS011;38687;43.330;21.924;2023-02-28T05:20:30;51.05;;;25.85;;
52816;SDS011;38687;43.330;21.924;2023-02-28T05:22:56;50.42;;;23.48;;
52816;SDS011;38687;43.330;21.924;2023-02-28T05:25:22;55.67;;;23.55;;
52816;SDS011;38687;43.330;21.924;2023-02-28T05:27:48;53.85;;;24.27;;
52816;SDS011;38687;43.330;21.924;2023-02-28T05:30:13;53.33;;;24.75;;
52816;SDS011;38687;43.330;21.924;2023-02-28T05:32:39;60.75;;;30.38;;
52816;SDS011;38687;43.330;21.924;2023-02-28T05:35:15;52.85;;;24.65;;
52816;SDS011;38687;43.330;21.924;2023-02-28T05:37:43;55.25;;;25.15;;
52816;SDS011;38687;43.330;21.924;2023-02-28T05:40:08;57.90;;;27.20;;
52816;SDS011;38687;43.330;21.924;2023-02-28T05:42:35;61.17;;;26.27;;
52816;SDS011;38687;43.330;21.924;2023-02-28T05:45:04;59.92;;;26.45;;
52816;SDS011;38687;43.330;21.924;2023-02-28T05:47:29;60.92;;;25.95;;
52816;SDS011;38687;43.330;21.924;2023-02-28T05:49:55;62.80;;;26.52;;
52816;SDS011;38687;43.330;21.924;2023-02-28T05:52:23;55.47;;;24.83;;
52816;SDS011;38687;43.330;21.924;2023-02-28T05:54:51;58.88;;;26.05;;
52816;SDS011;38687;43.330;21.924;2023-02-28T05:57:28;63.80;;;28.05;;
52816;SDS011;38687;43.330;21.924;2023-02-28T05:59:54;58.22;;;26.88;;
52816;SDS011;38687;43.330;21.924;2023-02-28T06:02:19;60.00;;;26.67;;
52816;SDS011;38687;43.330;21.924;2023-02-28T06:04:44;44.47;;;23.40;;
52816;SDS011;38687;43.330;21.924;2023-02-28T06:07:10;55.00;;;25.77;;
52816;SDS011;38687;43.330;21.924;2023-02-28T06:09:35;53.63;;;27.27;;
52816;SDS011;38687;43.330;21.924;2023-02-28T06:12:02;54.75;;;25.77;;
52816;SDS011;38687;43.330;21.924;2023-02-28T06:14:28;104.55;;;44.83;;
52816;SDS011;38687;43.330;21.924;2023-02-28T06:16:56;76.60;;;37.22;;
52816;SDS011;38687;43.330;21.924;2023-02-28T06:19:21;65.60;;;34.00;;
52816;SDS011;38687;43.330;21.924;2023-02-28T06:21:48;78.65;;;37.75;;
52816;SDS011;38687;43.330;21.924;2023-02-28T06:24:14;61.88;;;29.25;;
52816;SDS011;38687;43.330;21.924;2023-02-28T06:26:39;78.22;;;40.90;;
52816;SDS011;38687;43.330;21.924;2023-02-28T06:29:04;72.93;;;40.88;;
52816;SDS011;38687;43.330;21.924;2023-02-28T06:31:30;74.80;;;39.63;;
52816;SDS011;38687;43.330;21.924;2023-02-28T06:33:55;66.22;;;35.83;;
52816;SDS011;38687;43.330;21.924;2023-02-28T06:36:21;61.45;;;31.20;;
52816;SDS011;38687;43.330;21.924;2023-02-28T06:38:46;64.70;;;31.52;;
52816;SDS011;38687;43.330;21.924;2023-02-28T06:41:19;55.30;;;24.60;;
52816;SDS011;38687;43.330;21.924;2023-02-28T06:43:44;55.25;;;27.88;;
52816;SDS011;38687;43.330;21.924;2023-02-28T06:46:11;71.23;;;35.03;;
52816;SDS011;38687;43.330;21.924;2023-02-28T06:48:36;78.93;;;39.40;;
52816;SDS011;38687;43.330;21.924;2023-02-28T06:51:06;53.60;;;24.38;;
52816;SDS011;38687;43.330;21.924;2023-02-28T06:53:32;53.80;;;22.65;;
52816;SDS011;38687;43.330;21.924;2023-02-28T06:56:04;52.30;;;24.65;;
52816;SDS011;38687;43.330;21.924;2023-02-28T06:58:30;61.17;;;27.67;;
52816;SDS011;38687;43.330;21.924;2023-02-28T07:00:55;51.92;;;26.60;;
52816;SDS011;38687;43.330;21.924;2023-02-28T07:03:23;60.47;;;27.52;;
52816;SDS011;38687;43.330;21.924;2023-02-28T07:05:49;63.33;;;30.08;;
52816;SDS011;38687;43.330;21.924;2023-02-28T07:08:14;58.08;;;28.73;;
52816;SDS011;38687;43.330;21.924;2023-02-28T07:10:40;57.05;;;27.73;;
52816;SDS011;38687;43.330;21.924;2023-02-28T07:13:08;51.60;;;24.38;;
52816;SDS011;38687;43.330;21.924;2023-02-28T07:15:35;55.97;;;24.73;;
52816;SDS011;38687;43.330;21.924;2023-02-28T07:18:00;57.47;;;25.65;;
52816;SDS011;38687;43.330;21.924;2023-02-28T07:20:25;57.80;;;27.80;;
52816;SDS011;38687;43.330;21.924;2023-02-28T07:22:51;56.77;;;27.13;;
52816;SDS011;38687;43.330;21.924;2023-02-28T07:25:22;56.58;;;25.85;;
52816;SDS011;38687;43.330;21.924;2023-02-28T07:27:47;52.28;;;25.95;;
52816;SDS011;38687;43.330;21.924;2023-02-28T07:30:13;59.67;;;27.77;;
52816;SDS011;38687;43.330;21.924;2023-02-28T07:32:38;60.10;;;26.38;;
52816;SDS011;38687;43.330;21.924;2023-02-28T07:35:03;67.90;;;31.90;;
52816;SDS011;38687;43.330;21.924;2023-02-28T07:37:29;80.32;;;35.90;;
52816;SDS011;38687;43.330;21.924;2023-02-28T07:39:59;64.85;;;30.75;;
52816;SDS011;38687;43.330;21.924;2023-02-28T07:42:24;63.17;;;29.05;;
52816;SDS011;38687;43.330;21.924;2023-02-28T07:44:49;61.83;;;30.57;;
52816;SDS011;38687;43.330;21.924;2023-02-28T07:47:16;55.65;;;25.48;;
52816;SDS011;38687;43.330;21.924;2023-02-28T07:49:41;61.20;;;27.70;;
52816;SDS011;38687;43.330;21.924;2023-02-28T07:52:07;64.97;;;31.50;;
52816;SDS011;38687;43.330;21.924;2023-02-28T07:54:32;68.68;;;32.75;;
52816;SDS011;38687;43.330;21.924;2023-02-28T07:56:58;71.93;;;33.58;;
52816;SDS011;38687;43.330;21.924;2023-02-28T07:59:23;64.53;;;30.03;;
52816;SDS011;38687;43.330;21.924;2023-02-28T08:01:48;70.20;;;29.58;;
52816;SDS011;38687;43.330;21.924;2023-02-28T08:04:15;67.80;;;30.80;;
52816;SDS011;38687;43.330;21.924;2023-02-28T08:06:40;70.70;;;34.90;;
52816;SDS011;38687;43.330;21.924;2023-02-28T08:09:06;71.60;;;32.35;;
52816;SDS011;38687;43.330;21.924;2023-02-28T08:11:31;92.03;;;43.90;;
52816;SDS011;38687;43.330;21.924;2023-02-28T08:13:56;74.80;;;34.07;;
52816;SDS011;38687;43.330;21.924;2023-02-28T08:16:21;77.10;;;33.42;;
52816;SDS011;38687;43.330;21.924;2023-02-28T08:18:50;79.80;;;35.60;;
52816;SDS011;38687;43.330;21.924;2023-02-28T08:21:15;82.10;;;36.33;;
52816;SDS011;38687;43.330;21.924;2023-02-28T08:23:41;76.75;;;35.92;;
52816;SDS011;38687;43.330;21.924;2023-02-28T08:26:06;83.03;;;36.63;;
52816;SDS011;38687;43.330;21.924;2023-02-28T08:28:31;71.93;;;35.38;;
52816;SDS011;38687;43.330;21.924;2023-02-28T08:30:56;68.40;;;31.30;;
52816;SDS011;38687;43.330;21.924;2023-02-28T08:33:22;66.95;;;28.25;;
52816;SDS011;38687;43.330;21.924;2023-02-28T08:35:47;78.10;;;38.08;;
52816;SDS011;38687;43.330;21.924;2023-02-28T08:38:13;79.53;;;35.90;;
52816;SDS011;38687;43.330;21.924;2023-02-28T08:40:38;74.50;;;31.35;;
52816;SDS011;38687;43.330;21.924;2023-02-28T08:43:03;67.55;;;30.80;;
52816;SDS011;38687;43.330;21.924;2023-02-28T08:45:28;83.10;;;35.20;;
52816;SDS011;38687;43.330;21.924;2023-02-28T08:47:54;69.93;;;32.08;;
52816;SDS011;38687;43.330;21.924;2023-02-28T08:50:20;84.82;;;36.20;;
52816;SDS011;38687;43.330;21.924;2023-02-28T08:52:45;69.13;;;30.00;;
52816;SDS011;38687;43.330;21.924;2023-02-28T08:55:10;94.63;;;37.95;;
52816;SDS011;38687;43.330;21.924;2023-02-28T08:57:35;74.27;;;33.10;;
52816;SDS011;38687;43.330;21.924;2023-02-28T09:00:01;84.88;;;35.70;;
52816;SDS011;38687;43.330;21.924;2023-02-28T09:02:29;71.65;;;31.65;;
52816;SDS011;38687;43.330;21.924;2023-02-28T09:04:54;62.40;;;29.20;;
52816;SDS011;38687;43.330;21.924;2023-02-28T09:07:20;73.57;;;29.33;;
52816;SDS011;38687;43.330;21.924;2023-02-28T09:09:45;68.70;;;30.53;;
52816;SDS011;38687;43.330;21.924;2023-02-28T09:12:23;78.13;;;32.70;;
52816;SDS011;38687;43.330;21.924;2023-02-28T09:14:48;78.22;;;33.72;;
52816;SDS011;38687;43.330;21.924;2023-02-28T09:17:13;77.22;;;32.88;;
52816;SDS011;38687;43.330;21.924;2023-02-28T09:19:39;77.25;;;31.98;;
52816;SDS011;38687;43.330;21.924;2023-02-28T09:22:05;79.53;;;32.10;;
52816;SDS011;38687;43.330;21.924;2023-02-28T09:24:30;74.45;;;34.35;;
52816;SDS011;38687;43.330;21.924;2023-02-28T09:26:56;82.68;;;35.78;;
52816;SDS011;38687;43.330;21.924;2023-02-28T09:29:21;82.10;;;37.38;;
52816;SDS011;38687;43.330;21.924;2023-02-28T09:31:47;71.90;;;30.93;;
52816;SDS011;38687;43.330;21.924;2023-02-28T09:34:12;78.17;;;33.03;;
52816;SDS011;38687;43.330;21.924;2023-02-28T09:36:37;72.85;;;30.50;;
52816;SDS011;38687;43.330;21.924;2023-02-28T09:39:02;74.30;;;32.30;;
52816;SDS011;38687;43.330;21.924;2023-02-28T09:41:28;71.78;;;33.63;;
52816;SDS011;38687;43.330;21.924;2023-02-28T09:43:57;79.93;;;35.13;;
52816;SDS011;38687;43.330;21.924;2023-02-28T09:46:29;86.90;;;33.17;;
52816;SDS011;38687;43.330;21.924;2023-02-28T09:48:56;83.13;;;35.05;;
52816;SDS011;38687;43.330;21.924;2023-02-28T09:54:09;73.60;;;31.63;;
52816;SDS011;38687;43.330;21.924;2023-02-28T09:56:38;68.72;;;31.15;;
52816;SDS011;38687;43.330;21.924;2023-02-28T09:59:07;63.33;;;26.27;;
52816;SDS011;38687;43.330;21.924;2023-02-28T10:06:48;69.07;;;30.70;;
52816;SDS011;38687;43.330;21.924;2023-02-28T10:09:16;71.72;;;30.40;;
52816;SDS011;38687;43.330;21.924;2023-02-28T10:11:42;84.00;;;37.38;;
52816;SDS011;38687;43.330;21.924;2023-02-28T10:14:22;78.32;;;36.30;;
52816;SDS011;38687;43.330;21.924;2023-02-28T10:16:49;70.32;;;32.92;;
52816;SDS011;38687;43.330;21.924;2023-02-28T10:21:46;81.33;;;37.23;;
52816;SDS011;38687;43.330;21.924;2023-02-28T10:26:41;67.63;;;30.20;;
52816;SDS011;38687;43.330;21.924;2023-02-28T10:29:08;63.20;;;29.23;;
52816;SDS011;38687;43.330;21.924;2023-02-28T10:31:34;64.10;;;27.10;;
52816;SDS011;38687;43.330;21.924;2023-02-28T10:34:00;65.45;;;25.85;;
52816;SDS011;38687;43.330;21.924;2023-02-28T10:36:25;73.60;;;30.17;;
52816;SDS011;38687;43.330;21.924;2023-02-28T10:38:50;61.33;;;27.08;;
52816;SDS011;38687;43.330;21.924;2023-02-28T10:41:17;75.03;;;30.67;;
52816;SDS011;38687;43.330;21.924;2023-02-28T10:43:51;64.53;;;29.00;;
52816;SDS011;38687;43.330;21.924;2023-02-28T10:46:17;60.17;;;28.88;;
52816;SDS011;38687;43.330;21.924;2023-02-28T10:48:59;65.20;;;29.05;;
52816;SDS011;38687;43.330;21.924;2023-02-28T10:51:26;63.53;;;28.35;;
52816;SDS011;38687;43.330;21.924;2023-02-28T10:53:59;64.65;;;27.65;;
52816;SDS011;38687;43.330;21.924;2023-02-28T10:56:24;70.15;;;29.83;;
52816;SDS011;38687;43.330;21.924;2023-02-28T11:01:19;68.72;;;29.40;;
52816;SDS011;38687;43.330;21.924;2023-02-28T11:03:46;63.20;;;27.40;;
52816;SDS011;38687;43.330;21.924;2023-02-28T11:06:16;61.35;;;26.75;;
52816;SDS011;38687;43.330;21.924;2023-02-28T11:08:49;66.15;;;29.33;;
52816;SDS011;38687;43.330;21.924;2023-02-28T11:11:16;66.45;;;29.92;;
52816;SDS011;38687;43.330;21.924;2023-02-28T11:13:41;70.65;;;32.17;;
52816;SDS011;38687;43.330;21.924;2023-02-28T11:16:09;75.88;;;30.67;;
52816;SDS011;38687;43.330;21.924;2023-02-28T11:21:06;79.85;;;37.20;;
52816;SDS011;38687;43.330;21.924;2023-02-28T11:23:33;83.43;;;41.85;;
52816;SDS011;38687;43.330;21.924;2023-02-28T11:26:00;61.33;;;28.05;;
52816;SDS011;38687;43.330;21.924;2023-02-28T11:28:30;69.70;;;31.05;;
52816;SDS011;38687;43.330;21.924;2023-02-28T11:33:28;60.72;;;26.73;;
52816;SDS011;38687;43.330;21.924;2023-02-28T11:35:57;66.10;;;31.83;;
52816;SDS011;38687;43.330;21.924;2023-02-28T11:38:23;65.32;;;29.92;;
52816;SDS011;38687;43.330;21.924;2023-02-28T11:43:24;76.15;;;33.28;;
52816;SDS011;38687;43.330;21.924;2023-02-28T11:48:41;63.00;;;28.90;;
52816;SDS011;38687;43.330;21.924;2023-02-28T12:02:24;62.10;;;28.40;;
52816;SDS011;38687;43.330;21.924;2023-02-28T12:07:16;63.28;;;30.70;;
52816;SDS011;38687;43.330;21.924;2023-02-28T12:12:27;63.03;;;30.05;;
52816;SDS011;38687;43.330;21.924;2023-02-28T12:22:50;54.65;;;26.15;;
52816;SDS011;38687;43.330;21.924;2023-02-28T12:27:48;63.65;;;29.33;;
52816;SDS011;38687;43.330;21.924;2023-02-28T12:30:19;55.55;;;24.30;;
52816;SDS011;38687;43.330;21.924;2023-02-28T12:32:50;53.38;;;25.45;;
52816;SDS011;38687;43.330;21.924;2023-02-28T12:35:19;49.85;;;24.17;;
52816;SDS011;38687;43.330;21.924;2023-02-28T12:37:49;57.17;;;24.40;;
52816;SDS011;38687;43.330;21.924;2023-02-28T12:40:16;50.85;;;23.60;;
52816;SDS011;38687;43.330;21.924;2023-02-28T12:42:44;57.53;;;24.40;;
52816;SDS011;38687;43.330;21.924;2023-02-28T12:45:18;67.10;;;31.27;;
52816;SDS011;38687;43.330;21.924;2023-02-28T12:47:44;63.20;;;28.70;;
52816;SDS011;38687;43.330;21.924;2023-02-28T12:50:11;73.93;;;31.63;;
52816;SDS011;38687;43.330;21.924;2023-02-28T13:00:34;56.75;;;26.90;;
52816;SDS011;38687;43.330;21.924;2023-02-28T13:05:38;60.78;;;28.92;;
52816;SDS011;38687;43.330;21.924;2023-02-28T13:08:17;57.38;;;27.35;;
52816;SDS011;38687;43.330;21.924;2023-02-28T13:10:47;50.75;;;25.88;;
52816;SDS011;38687;43.330;21.924;2023-02-28T13:13:18;61.17;;;26.95;;
52816;SDS011;38687;43.330;21.924;2023-02-28T13:15:56;57.92;;;26.13;;
52816;SDS011;38687;43.330;21.924;2023-02-28T13:18:36;55.35;;;27.20;;
52816;SDS011;38687;43.330;21.924;2023-02-28T13:21:03;55.83;;;24.58;;
52816;SDS011;38687;43.330;21.924;2023-02-28T13:26:04;50.15;;;24.05;;
52816;SDS011;38687;43.330;21.924;2023-02-28T13:31:14;57.03;;;25.45;;
52816;SDS011;38687;43.330;21.924;2023-02-28T13:36:30;55.95;;;29.27;;
52816;SDS011;38687;43.330;21.924;2023-02-28T13:38:57;50.22;;;24.95;;
52816;SDS011;38687;43.330;21.924;2023-02-28T13:46:24;59.78;;;28.13;;
52816;SDS011;38687;43.330;21.924;2023-02-28T13:48:50;49.97;;;24.83;;
52816;SDS011;38687;43.330;21.924;2023-02-28T13:51:27;52.63;;;25.30;;
52816;SDS011;38687;43.330;21.924;2023-02-28T13:53:59;48.30;;;23.50;;
52816;SDS011;38687;43.330;21.924;2023-02-28T13:56:44;47.28;;;23.15;;
52816;SDS011;38687;43.330;21.924;2023-02-28T14:07:15;45.20;;;23.50;;
52816;SDS011;38687;43.330;21.924;2023-02-28T14:09:44;45.53;;;21.83;;
52816;SDS011;38687;43.330;21.924;2023-02-28T14:14:54;42.65;;;20.58;;
52816;SDS011;38687;43.330;21.924;2023-02-28T14:17:20;54.47;;;26.15;;
52816;SDS011;38687;43.330;21.924;2023-02-28T14:19:46;75.63;;;39.47;;
52816;SDS011;38687;43.330;21.924;2023-02-28T14:25:06;48.55;;;22.38;;
52816;SDS011;38687;43.330;21.924;2023-02-28T14:30:11;61.10;;;29.70;;
52816;SDS011;38687;43.330;21.924;2023-02-28T14:37:59;60.92;;;31.60;;
52816;SDS011;38687;43.330;21.924;2023-02-28T14:40:31;60.05;;;28.52;;
52816;SDS011;38687;43.330;21.924;2023-02-28T14:43:16;51.80;;;25.50;;
52816;SDS011;38687;43.330;21.924;2023-02-28T14:45:42;40.90;;;22.23;;
52816;SDS011;38687;43.330;21.924;2023-02-28T14:48:10;44.80;;;23.38;;
52816;SDS011;38687;43.330;21.924;2023-02-28T14:50:36;40.63;;;22.27;;
52816;SDS011;38687;43.330;21.924;2023-02-28T14:53:02;46.25;;;23.15;;
52816;SDS011;38687;43.330;21.924;2023-02-28T14:55:32;46.55;;;22.77;;
52816;SDS011;38687;43.330;21.924;2023-02-28T14:58:03;56.05;;;27.25;;
52816;SDS011;38687;43.330;21.924;2023-02-28T15:00:34;76.82;;;36.22;;
52816;SDS011;38687;43.330;21.924;2023-02-28T15:03:11;46.03;;;21.33;;
52816;SDS011;38687;43.330;21.924;2023-02-28T15:05:42;47.20;;;24.02;;
52816;SDS011;38687;43.330;21.924;2023-02-28T15:08:16;46.65;;;21.92;;
52816;SDS011;38687;43.330;21.924;2023-02-28T15:10:42;94.80;;;46.97;;
52816;SDS011;38687;43.330;21.924;2023-02-28T15:13:11;68.20;;;32.80;;
52816;SDS011;38687;43.330;21.924;2023-02-28T15:21:04;39.45;;;22.17;;
52816;SDS011;38687;43.330;21.924;2023-02-28T15:23:31;43.70;;;22.42;;
52816;SDS011;38687;43.330;21.924;2023-02-28T15:25:56;38.85;;;19.05;;
52816;SDS011;38687;43.330;21.924;2023-02-28T15:28:22;13.07;;;7.35;;
52816;SDS011;38687;43.330;21.924;2023-02-28T15:30:55;12.75;;;7.00;;
52816;SDS011;38687;43.330;21.924;2023-02-28T15:33:22;16.63;;;9.95;;
52816;SDS011;38687;43.330;21.924;2023-02-28T15:35:49;22.83;;;12.88;;
52816;SDS011;38687;43.330;21.924;2023-02-28T15:38:16;29.25;;;15.77;;
52816;SDS011;38687;43.330;21.924;2023-02-28T15:40:46;18.45;;;11.55;;
52816;SDS011;38687;43.330;21.924;2023-02-28T15:43:22;13.50;;;7.05;;
52816;SDS011;38687;43.330;21.924;2023-02-28T15:45:49;18.45;;;10.30;;
52816;SDS011;38687;43.330;21.924;2023-02-28T15:48:16;18.88;;;9.73;;
52816;SDS011;38687;43.330;21.924;2023-02-28T15:50:42;33.03;;;19.98;;
52816;SDS011;38687;43.330;21.924;2023-02-28T15:53:26;25.20;;;14.65;;
52816;SDS011;38687;43.330;21.924;2023-02-28T15:56:07;16.15;;;8.93;;
52816;SDS011;38687;43.330;21.924;2023-02-28T15:58:38;17.35;;;9.60;;
52816;SDS011;38687;43.330;21.924;2023-02-28T16:01:15;26.52;;;12.60;;
52816;SDS011;38687;43.330;21.924;2023-02-28T16:03:46;23.80;;;12.98;;
52816;SDS011;38687;43.330;21.924;2023-02-28T16:08:56;17.55;;;12.38;;
52816;SDS011;38687;43.330;21.924;2023-02-28T16:11:21;23.30;;;13.85;;
52816;SDS011;38687;43.330;21.924;2023-02-28T16:13:47;21.83;;;13.50;;
52816;SDS011;38687;43.330;21.924;2023-02-28T16:16:16;20.83;;;11.75;;
52816;SDS011;38687;43.330;21.924;2023-02-28T16:18:42;17.52;;;9.20;;
52816;SDS011;38687;43.330;21.924;2023-02-28T16:21:10;13.82;;;7.80;;
52816;SDS011;38687;43.330;21.924;2023-02-28T16:23:35;19.58;;;11.43;;
52816;SDS011;38687;43.330;21.924;2023-02-28T16:26:02;13.90;;;7.60;;
52816;SDS011;38687;43.330;21.924;2023-02-28T16:28:29;40.47;;;18.65;;
52816;SDS011;38687;43.330;21.924;2023-02-28T16:30:56;80.65;;;32.55;;
52816;SDS011;38687;43.330;21.924;2023-02-28T16:33:21;55.88;;;23.10;;
52816;SDS011;38687;43.330;21.924;2023-02-28T16:35:46;30.40;;;16.90;;